SKB1 KCMH-KPSM
Flight info
| Callsign | SKB1 |
|---|---|
| Flight time | 1h 20m |
| Altitude | 39000 |
| Route | OWEBO HLG PSB DARBO EEGUL KYLOH |
| Aircraft | A319/M-SDE3FGHIRWY/LB1 |
Departure
| Time | 2026-05-09 00:46 |
|---|---|
| Airport | John Glenn Columbus International Airport (KCMH) |
Arrival
| Time | 2026-05-09 02:07 |
|---|---|
| Airport | Portsmouth International Airport at Pease (KPSM) |
| Time | Latitude | Longitude | Altitude | Speed | Heading |
|---|---|---|---|---|---|
| 2026-05-09 00:05 | 39.99655 | -82.88667 | 825 ft | 0 kts | 26° |
| 2026-05-09 00:35 | 39.99638 | -82.88678 | 823 ft | 4 kts | 28° |
| 2026-05-09 00:35 | 39.99616 | -82.88698 | 825 ft | 4 kts | 52° |
| 2026-05-09 00:36 | 39.99605 | -82.88728 | 825 ft | 4 kts | 85° |
| 2026-05-09 00:36 | 39.99605 | -82.88744 | 825 ft | 1 kts | 94° |
| 2026-05-09 00:36 | 39.99605 | -82.88746 | 825 ft | 0 kts | 94° |
| 2026-05-09 00:39 | 39.99605 | -82.88745 | 825 ft | 0 kts | 94° |
| 2026-05-09 00:39 | 39.99605 | -82.88744 | 825 ft | 0 kts | 94° |
| 2026-05-09 00:39 | 39.99605 | -82.88743 | 825 ft | 1 kts | 94° |
| 2026-05-09 00:39 | 39.99603 | -82.88721 | 825 ft | 3 kts | 94° |
| 2026-05-09 00:40 | 39.99602 | -82.88690 | 825 ft | 4 kts | 94° |
| 2026-05-09 00:40 | 39.99599 | -82.88649 | 825 ft | 5 kts | 94° |
| 2026-05-09 00:40 | 39.99597 | -82.88603 | 825 ft | 5 kts | 94° |
| 2026-05-09 00:41 | 39.99589 | -82.88466 | 825 ft | 9 kts | 94° |
| 2026-05-09 00:41 | 39.99585 | -82.88383 | 825 ft | 9 kts | 94° |
| 2026-05-09 00:41 | 39.99606 | -82.88304 | 824 ft | 10 kts | 50° |
| 2026-05-09 00:41 | 39.99615 | -82.88219 | 825 ft | 10 kts | 95° |
| 2026-05-09 00:42 | 39.99609 | -82.88126 | 825 ft | 11 kts | 95° |
| 2026-05-09 00:42 | 39.99603 | -82.88028 | 825 ft | 11 kts | 95° |
| 2026-05-09 00:42 | 39.99596 | -82.87926 | 825 ft | 12 kts | 95° |
| 2026-05-09 00:42 | 39.99590 | -82.87820 | 825 ft | 12 kts | 95° |
| 2026-05-09 00:43 | 39.99571 | -82.87711 | 825 ft | 12 kts | 98° |
| 2026-05-09 00:43 | 39.99564 | -82.87597 | 825 ft | 13 kts | 94° |
| 2026-05-09 00:43 | 39.99557 | -82.87477 | 825 ft | 13 kts | 94° |
| 2026-05-09 00:43 | 39.99551 | -82.87358 | 825 ft | 11 kts | 94° |
| 2026-05-09 00:44 | 39.99506 | -82.87290 | 823 ft | 11 kts | 174° |
| 2026-05-09 00:44 | 39.99428 | -82.87296 | 825 ft | 12 kts | 186° |
| 2026-05-09 00:44 | 39.99346 | -82.87308 | 825 ft | 12 kts | 187° |
| 2026-05-09 00:44 | 39.99258 | -82.87322 | 825 ft | 13 kts | 185° |
| 2026-05-09 00:45 | 39.99172 | -82.87353 | 822 ft | 13 kts | 233° |
| 2026-05-09 00:45 | 39.99171 | -82.87472 | 824 ft | 15 kts | 274° |
| 2026-05-09 00:45 | 39.99192 | -82.87850 | 824 ft | 79 kts | 274° |
| 2026-05-09 00:45 | 39.99249 | -82.88854 | 825 ft | 141 kts | 274° |
| 2026-05-09 00:46 | 39.99328 | -82.90303 | 1111 ft | 166 kts | 274° |
| 2026-05-09 00:46 | 39.99406 | -82.91796 | 1839 ft | 164 kts | 273° |
| 2026-05-09 00:46 | 39.99476 | -82.93272 | 2539 ft | 167 kts | 272° |
| 2026-05-09 00:46 | 39.99558 | -82.94905 | 2908 ft | 191 kts | 272° |
| 2026-05-09 00:47 | 39.99666 | -82.96731 | 3218 ft | 217 kts | 273° |
| 2026-05-09 00:47 | 39.99814 | -82.98745 | 3915 ft | 226 kts | 273° |
| 2026-05-09 00:47 | 39.99987 | -83.00804 | 4719 ft | 237 kts | 274° |
| 2026-05-09 00:47 | 40.00523 | -83.02922 | 5065 ft | 259 kts | 300° |
| 2026-05-09 00:48 | 40.01917 | -83.04490 | 6047 ft | 275 kts | 328° |
| 2026-05-09 00:48 | 40.03819 | -83.05093 | 6988 ft | 292 kts | 355° |
| 2026-05-09 00:48 | 40.05857 | -83.04643 | 7959 ft | 302 kts | 11° |
| 2026-05-09 00:48 | 40.07882 | -83.03853 | 8925 ft | 306 kts | 12° |
| 2026-05-09 00:49 | 40.09922 | -83.03002 | 9892 ft | 310 kts | 12° |
| 2026-05-09 00:49 | 40.12004 | -83.02047 | 10441 ft | 331 kts | 20° |
| 2026-05-09 00:49 | 40.13914 | -83.00174 | 10980 ft | 356 kts | 47° |
| 2026-05-09 00:49 | 40.15102 | -82.97308 | 11761 ft | 366 kts | 73° |
| 2026-05-09 00:50 | 40.15321 | -82.93992 | 12558 ft | 371 kts | 94° |
| 2026-05-09 00:50 | 40.15168 | -82.90612 | 12896 ft | 373 kts | 95° |
| 2026-05-09 00:50 | 40.14970 | -82.87232 | 12996 ft | 373 kts | 95° |
| 2026-05-09 00:50 | 40.14749 | -82.83855 | 13010 ft | 373 kts | 95° |
| 2026-05-09 00:51 | 40.14526 | -82.80515 | 13012 ft | 373 kts | 95° |
| 2026-05-09 00:51 | 40.14307 | -82.77105 | 13007 ft | 373 kts | 95° |
| 2026-05-09 00:51 | 40.14104 | -82.73732 | 13011 ft | 372 kts | 95° |
| 2026-05-09 00:51 | 40.13910 | -82.70360 | 13011 ft | 371 kts | 95° |
| 2026-05-09 00:52 | 40.13720 | -82.66994 | 13013 ft | 371 kts | 95° |
| 2026-05-09 00:52 | 40.13530 | -82.63633 | 13015 ft | 371 kts | 95° |
| 2026-05-09 00:52 | 40.13337 | -82.60270 | 13016 ft | 371 kts | 95° |
| 2026-05-09 00:52 | 40.13139 | -82.56904 | 13015 ft | 371 kts | 95° |
| 2026-05-09 00:53 | 40.12938 | -82.53555 | 13010 ft | 371 kts | 95° |
| 2026-05-09 00:53 | 40.12736 | -82.50216 | 13419 ft | 374 kts | 95° |
| 2026-05-09 00:53 | 40.12530 | -82.46815 | 14230 ft | 377 kts | 95° |
| 2026-05-09 00:53 | 40.12321 | -82.43379 | 14919 ft | 382 kts | 95° |
| 2026-05-09 00:54 | 40.12109 | -82.39898 | 15598 ft | 387 kts | 95° |
| 2026-05-09 00:54 | 40.11894 | -82.36377 | 16276 ft | 392 kts | 95° |
| 2026-05-09 00:54 | 40.11679 | -82.32807 | 16950 ft | 397 kts | 95° |
| 2026-05-09 00:54 | 40.11460 | -82.29190 | 17633 ft | 401 kts | 95° |
| 2026-05-09 00:55 | 40.11237 | -82.25531 | 18277 ft | 406 kts | 95° |
| 2026-05-09 00:55 | 40.11007 | -82.21837 | 18835 ft | 411 kts | 95° |
| 2026-05-09 00:55 | 40.10778 | -82.18087 | 19386 ft | 417 kts | 95° |
| 2026-05-09 00:55 | 40.10541 | -82.14288 | 19927 ft | 422 kts | 95° |
| 2026-05-09 00:56 | 40.10299 | -82.10431 | 20479 ft | 428 kts | 95° |
| 2026-05-09 00:56 | 40.10052 | -82.06546 | 21020 ft | 433 kts | 95° |
| 2026-05-09 00:56 | 40.09800 | -82.02598 | 21560 ft | 439 kts | 95° |
| 2026-05-09 00:56 | 40.09540 | -81.98606 | 22084 ft | 444 kts | 95° |
| 2026-05-09 00:57 | 40.09276 | -81.94569 | 22609 ft | 449 kts | 95° |
| 2026-05-09 00:57 | 40.09012 | -81.90474 | 23136 ft | 455 kts | 95° |
| 2026-05-09 00:57 | 40.08746 | -81.86341 | 23626 ft | 460 kts | 95° |
| 2026-05-09 00:57 | 40.08474 | -81.82162 | 24080 ft | 464 kts | 95° |
| 2026-05-09 00:58 | 40.08190 | -81.77937 | 24541 ft | 468 kts | 95° |
| 2026-05-09 00:58 | 40.07939 | -81.73683 | 24992 ft | 472 kts | 91° |
| 2026-05-09 00:58 | 40.08087 | -81.69398 | 25440 ft | 474 kts | 81° |
| 2026-05-09 00:58 | 40.08691 | -81.65172 | 25889 ft | 475 kts | 74° |
| 2026-05-09 00:59 | 40.09406 | -81.60938 | 26342 ft | 478 kts | 75° |
| 2026-05-09 00:59 | 40.10110 | -81.56689 | 26783 ft | 481 kts | 75° |
| 2026-05-09 00:59 | 40.10815 | -81.52388 | 27203 ft | 485 kts | 75° |
| 2026-05-09 00:59 | 40.11519 | -81.48062 | 27627 ft | 489 kts | 75° |
| 2026-05-09 01:00 | 40.12224 | -81.43709 | 28027 ft | 492 kts | 75° |
| 2026-05-09 01:00 | 40.12936 | -81.39312 | 28432 ft | 496 kts | 75° |
| 2026-05-09 01:00 | 40.13650 | -81.34893 | 28834 ft | 499 kts | 75° |
| 2026-05-09 01:00 | 40.14368 | -81.30443 | 29245 ft | 502 kts | 75° |
| 2026-05-09 01:01 | 40.15090 | -81.25954 | 29701 ft | 506 kts | 75° |
| 2026-05-09 01:01 | 40.15811 | -81.21447 | 30074 ft | 509 kts | 75° |
| 2026-05-09 01:01 | 40.16529 | -81.16956 | 30388 ft | 513 kts | 75° |
| 2026-05-09 01:01 | 40.17263 | -81.12370 | 30664 ft | 517 kts | 75° |
| 2026-05-09 01:02 | 40.18002 | -81.07749 | 30930 ft | 522 kts | 75° |
| 2026-05-09 01:02 | 40.18749 | -81.03081 | 31203 ft | 526 kts | 75° |
| 2026-05-09 01:02 | 40.19501 | -80.98380 | 31467 ft | 531 kts | 75° |
| 2026-05-09 01:02 | 40.20255 | -80.93638 | 31725 ft | 535 kts | 75° |
| 2026-05-09 01:03 | 40.21007 | -80.88855 | 31962 ft | 539 kts | 75° |
| 2026-05-09 01:03 | 40.21760 | -80.84028 | 32196 ft | 544 kts | 76° |
| 2026-05-09 01:03 | 40.22516 | -80.79166 | 32460 ft | 547 kts | 76° |
| 2026-05-09 01:03 | 40.23279 | -80.74280 | 32824 ft | 548 kts | 76° |
| 2026-05-09 01:04 | 40.24045 | -80.69383 | 33157 ft | 550 kts | 76° |
| 2026-05-09 01:04 | 40.24810 | -80.64476 | 33482 ft | 553 kts | 76° |
| 2026-05-09 01:04 | 40.25579 | -80.59533 | 33822 ft | 555 kts | 75° |
| 2026-05-09 01:04 | 40.26582 | -80.54664 | 34109 ft | 553 kts | 66° |
| 2026-05-09 01:05 | 40.27859 | -80.49925 | 34397 ft | 553 kts | 66° |
| 2026-05-09 01:05 | 40.29139 | -80.45170 | 34735 ft | 553 kts | 66° |
| 2026-05-09 01:05 | 40.31672 | -80.35665 | 35391 ft | 552 kts | 66° |
| 2026-05-09 01:06 | 40.32932 | -80.30913 | 35695 ft | 552 kts | 66° |
| 2026-05-09 01:06 | 40.34189 | -80.26161 | 36005 ft | 551 kts | 67° |
| 2026-05-09 01:06 | 40.35443 | -80.21413 | 36315 ft | 551 kts | 67° |
| 2026-05-09 01:06 | 40.36697 | -80.16670 | 36603 ft | 551 kts | 67° |
| 2026-05-09 01:07 | 40.37952 | -80.11918 | 36843 ft | 551 kts | 66° |
| 2026-05-09 01:07 | 40.39204 | -80.07163 | 37069 ft | 552 kts | 67° |
| 2026-05-09 01:07 | 40.40455 | -80.02396 | 37339 ft | 552 kts | 67° |
| 2026-05-09 01:07 | 40.41687 | -79.97698 | 37605 ft | 552 kts | 67° |
| 2026-05-09 01:08 | 40.42952 | -79.92876 | 37861 ft | 552 kts | 67° |
| 2026-05-09 01:08 | 40.44183 | -79.88172 | 38124 ft | 552 kts | 67° |
| 2026-05-09 01:08 | 40.45428 | -79.83409 | 38383 ft | 552 kts | 67° |
| 2026-05-09 01:08 | 40.46673 | -79.78637 | 38692 ft | 551 kts | 67° |
| 2026-05-09 01:09 | 40.47910 | -79.73892 | 38890 ft | 549 kts | 67° |
| 2026-05-09 01:09 | 40.50357 | -79.64448 | 38971 ft | 544 kts | 67° |
| 2026-05-09 01:10 | 40.52778 | -79.55045 | 38977 ft | 543 kts | 68° |
| 2026-05-09 01:10 | 40.55190 | -79.45648 | 38976 ft | 542 kts | 68° |
| 2026-05-09 01:11 | 40.57598 | -79.36237 | 38971 ft | 544 kts | 67° |
| 2026-05-09 01:11 | 40.60006 | -79.26803 | 38968 ft | 544 kts | 67° |
| 2026-05-09 01:12 | 40.62006 | -79.18949 | 38967 ft | 545 kts | 67° |
| 2026-05-09 01:12 | 40.64397 | -79.09501 | 38992 ft | 544 kts | 68° |
| 2026-05-09 01:13 | 40.66782 | -79.00062 | 38992 ft | 543 kts | 68° |
| 2026-05-09 01:13 | 40.69159 | -78.90618 | 38992 ft | 543 kts | 68° |
| 2026-05-09 01:14 | 40.71522 | -78.81171 | 38994 ft | 543 kts | 68° |
| 2026-05-09 01:14 | 40.73877 | -78.71710 | 38995 ft | 543 kts | 68° |
| 2026-05-09 01:15 | 40.76226 | -78.62254 | 38994 ft | 543 kts | 67° |
| 2026-05-09 01:15 | 40.78573 | -78.52779 | 39011 ft | 543 kts | 68° |
| 2026-05-09 01:16 | 40.80910 | -78.43318 | 39002 ft | 542 kts | 68° |
| 2026-05-09 01:16 | 40.83224 | -78.33863 | 38990 ft | 540 kts | 68° |
| 2026-05-09 01:17 | 40.86683 | -78.19708 | 38991 ft | 539 kts | 68° |
| 2026-05-09 01:17 | 40.88973 | -78.10289 | 38987 ft | 539 kts | 68° |
| 2026-05-09 01:18 | 40.91303 | -78.00884 | 38975 ft | 536 kts | 63° |
| 2026-05-09 01:18 | 40.94751 | -77.92295 | 38993 ft | 526 kts | 52° |
| 2026-05-09 01:19 | 40.98482 | -77.83973 | 38992 ft | 526 kts | 52° |
| 2026-05-09 01:19 | 41.02193 | -77.75634 | 39000 ft | 526 kts | 52° |
| 2026-05-09 01:20 | 41.05869 | -77.67338 | 38987 ft | 525 kts | 53° |
| 2026-05-09 01:20 | 41.09589 | -77.58927 | 38989 ft | 525 kts | 53° |
| 2026-05-09 01:21 | 41.13241 | -77.50640 | 38982 ft | 522 kts | 53° |
| 2026-05-09 01:21 | 41.16921 | -77.42272 | 38974 ft | 521 kts | 53° |
| 2026-05-09 01:22 | 41.20548 | -77.34007 | 38978 ft | 522 kts | 53° |
| 2026-05-09 01:22 | 41.24194 | -77.25672 | 38970 ft | 522 kts | 53° |
| 2026-05-09 01:23 | 41.27834 | -77.17341 | 38989 ft | 522 kts | 53° |
| 2026-05-09 01:23 | 41.31465 | -77.08994 | 38987 ft | 521 kts | 53° |
| 2026-05-09 01:24 | 41.35092 | -77.00645 | 38976 ft | 521 kts | 53° |
| 2026-05-09 01:24 | 41.38715 | -76.92296 | 38973 ft | 520 kts | 53° |
| 2026-05-09 01:25 | 41.42322 | -76.83940 | 38968 ft | 520 kts | 53° |
| 2026-05-09 01:25 | 41.45918 | -76.75585 | 38983 ft | 519 kts | 54° |
| 2026-05-09 01:26 | 41.49501 | -76.67245 | 38981 ft | 517 kts | 54° |
| 2026-05-09 01:26 | 41.53070 | -76.58915 | 38975 ft | 516 kts | 54° |
| 2026-05-09 01:27 | 41.56618 | -76.50584 | 38966 ft | 516 kts | 54° |
| 2026-05-09 01:27 | 41.60157 | -76.42263 | 38999 ft | 515 kts | 54° |
| 2026-05-09 01:28 | 41.63683 | -76.33950 | 38965 ft | 513 kts | 54° |
| 2026-05-09 01:28 | 41.67195 | -76.25660 | 38965 ft | 512 kts | 54° |
| 2026-05-09 01:29 | 41.70699 | -76.17363 | 38964 ft | 512 kts | 54° |
| 2026-05-09 01:29 | 41.74191 | -76.09056 | 38954 ft | 512 kts | 54° |
| 2026-05-09 01:30 | 41.77685 | -76.00729 | 38981 ft | 513 kts | 54° |
| 2026-05-09 01:30 | 41.80925 | -75.92258 | 38982 ft | 518 kts | 63° |
| 2026-05-09 01:31 | 41.83676 | -75.83330 | 38980 ft | 518 kts | 63° |
| 2026-05-09 01:31 | 41.86418 | -75.74406 | 38974 ft | 518 kts | 63° |
| 2026-05-09 01:32 | 41.89159 | -75.65476 | 38974 ft | 518 kts | 63° |
| 2026-05-09 01:32 | 41.91885 | -75.56534 | 38977 ft | 518 kts | 63° |
| 2026-05-09 01:33 | 41.94612 | -75.47583 | 38983 ft | 518 kts | 63° |
| 2026-05-09 01:33 | 41.97330 | -75.38634 | 38981 ft | 517 kts | 63° |
| 2026-05-09 01:34 | 42.00043 | -75.29666 | 38986 ft | 517 kts | 63° |
| 2026-05-09 01:34 | 42.02735 | -75.20715 | 38569 ft | 516 kts | 63° |
| 2026-05-09 01:35 | 42.04066 | -75.16284 | 38371 ft | 505 kts | 63° |
| 2026-05-09 01:35 | 42.05366 | -75.11946 | 38030 ft | 499 kts | 63° |
| 2026-05-09 01:35 | 42.06682 | -75.07566 | 36953 ft | 510 kts | 63° |
| 2026-05-09 01:35 | 42.08020 | -75.03114 | 36136 ft | 514 kts | 63° |
| 2026-05-09 01:36 | 42.09360 | -74.98640 | 35442 ft | 516 kts | 63° |
| 2026-05-09 01:36 | 42.10695 | -74.94160 | 34811 ft | 516 kts | 63° |
| 2026-05-09 01:36 | 42.12027 | -74.89673 | 34185 ft | 516 kts | 64° |
| 2026-05-09 01:36 | 42.13356 | -74.85190 | 33467 ft | 515 kts | 64° |
| 2026-05-09 01:37 | 42.14687 | -74.80706 | 32680 ft | 515 kts | 63° |
| 2026-05-09 01:37 | 42.16017 | -74.76221 | 31875 ft | 516 kts | 63° |
| 2026-05-09 01:37 | 42.17344 | -74.71727 | 31235 ft | 516 kts | 63° |
| 2026-05-09 01:37 | 42.18665 | -74.67236 | 30985 ft | 517 kts | 63° |
| 2026-05-09 01:38 | 42.21310 | -74.58210 | 30968 ft | 518 kts | 63° |
| 2026-05-09 01:38 | 42.23963 | -74.49177 | 30978 ft | 518 kts | 63° |
| 2026-05-09 01:39 | 42.26617 | -74.40132 | 30972 ft | 518 kts | 63° |
| 2026-05-09 01:39 | 42.29253 | -74.31074 | 30979 ft | 518 kts | 63° |
| 2026-05-09 01:40 | 42.31875 | -74.22014 | 30976 ft | 518 kts | 63° |
| 2026-05-09 01:40 | 42.34491 | -74.12949 | 30986 ft | 517 kts | 63° |
| 2026-05-09 01:41 | 42.37097 | -74.03885 | 30964 ft | 517 kts | 63° |
| 2026-05-09 01:41 | 42.39696 | -73.94820 | 30953 ft | 517 kts | 64° |
| 2026-05-09 01:42 | 42.42265 | -73.85813 | 30954 ft | 516 kts | 63° |
| 2026-05-09 01:42 | 42.43554 | -73.81294 | 30483 ft | 514 kts | 63° |
| 2026-05-09 01:42 | 42.44839 | -73.76796 | 29698 ft | 512 kts | 63° |
| 2026-05-09 01:43 | 42.46114 | -73.72324 | 28971 ft | 507 kts | 63° |
| 2026-05-09 01:43 | 42.47375 | -73.67883 | 28341 ft | 502 kts | 64° |
| 2026-05-09 01:43 | 42.48615 | -73.63499 | 27703 ft | 496 kts | 64° |
| 2026-05-09 01:43 | 42.49842 | -73.59158 | 27124 ft | 490 kts | 64° |
| 2026-05-09 01:44 | 42.51050 | -73.54867 | 26539 ft | 485 kts | 64° |
| 2026-05-09 01:44 | 42.52244 | -73.50617 | 25954 ft | 479 kts | 64° |
| 2026-05-09 01:44 | 42.53422 | -73.46422 | 25399 ft | 474 kts | 64° |
| 2026-05-09 01:44 | 42.54589 | -73.42262 | 24835 ft | 469 kts | 64° |
| 2026-05-09 01:45 | 42.55741 | -73.38152 | 24281 ft | 464 kts | 64° |
| 2026-05-09 01:45 | 42.56882 | -73.34080 | 24003 ft | 462 kts | 64° |
| 2026-05-09 01:45 | 42.58023 | -73.30019 | 23932 ft | 460 kts | 64° |
| 2026-05-09 01:45 | 42.59163 | -73.25964 | 23968 ft | 460 kts | 64° |
| 2026-05-09 01:46 | 42.60297 | -73.21909 | 23965 ft | 459 kts | 65° |
| 2026-05-09 01:46 | 42.61422 | -73.17856 | 23963 ft | 459 kts | 65° |
| 2026-05-09 01:46 | 42.62539 | -73.13801 | 23976 ft | 459 kts | 65° |
| 2026-05-09 01:46 | 42.63608 | -73.09716 | 23953 ft | 460 kts | 67° |
| 2026-05-09 01:47 | 42.64616 | -73.05592 | 23965 ft | 460 kts | 68° |
| 2026-05-09 01:47 | 42.65584 | -73.01439 | 23975 ft | 461 kts | 69° |
| 2026-05-09 01:47 | 42.66535 | -72.97284 | 23968 ft | 461 kts | 69° |
| 2026-05-09 01:47 | 42.67474 | -72.93187 | 23977 ft | 460 kts | 68° |
| 2026-05-09 01:48 | 42.68439 | -72.89032 | 23974 ft | 460 kts | 68° |
| 2026-05-09 01:48 | 42.69414 | -72.84891 | 23965 ft | 460 kts | 68° |
| 2026-05-09 01:48 | 42.70398 | -72.80752 | 23972 ft | 460 kts | 68° |
| 2026-05-09 01:48 | 42.71387 | -72.76607 | 23966 ft | 460 kts | 68° |
| 2026-05-09 01:49 | 42.72373 | -72.72465 | 23969 ft | 460 kts | 68° |
| 2026-05-09 01:49 | 42.73352 | -72.68330 | 23969 ft | 460 kts | 68° |
| 2026-05-09 01:49 | 42.74330 | -72.64186 | 23970 ft | 460 kts | 68° |
| 2026-05-09 01:49 | 42.75307 | -72.60039 | 23971 ft | 460 kts | 68° |
| 2026-05-09 01:50 | 42.76275 | -72.55912 | 23683 ft | 456 kts | 68° |
| 2026-05-09 01:50 | 42.77230 | -72.51828 | 22873 ft | 450 kts | 68° |
| 2026-05-09 01:50 | 42.78172 | -72.47787 | 22042 ft | 445 kts | 68° |
| 2026-05-09 01:50 | 42.79101 | -72.43790 | 21295 ft | 440 kts | 68° |
| 2026-05-09 01:51 | 42.80015 | -72.39835 | 20575 ft | 435 kts | 68° |
| 2026-05-09 01:51 | 42.80916 | -72.35938 | 19856 ft | 430 kts | 68° |
| 2026-05-09 01:51 | 42.81811 | -72.32079 | 19148 ft | 425 kts | 68° |
| 2026-05-09 01:51 | 42.82696 | -72.28267 | 18437 ft | 420 kts | 68° |
| 2026-05-09 01:52 | 42.83568 | -72.24493 | 17709 ft | 415 kts | 69° |
| 2026-05-09 01:52 | 42.84426 | -72.20774 | 17018 ft | 408 kts | 69° |
| 2026-05-09 01:52 | 42.85269 | -72.17116 | 16296 ft | 402 kts | 69° |
| 2026-05-09 01:52 | 42.86098 | -72.13505 | 15595 ft | 396 kts | 69° |
| 2026-05-09 01:53 | 42.86913 | -72.09946 | 14942 ft | 390 kts | 70° |
| 2026-05-09 01:53 | 42.87716 | -72.06445 | 14264 ft | 384 kts | 70° |
| 2026-05-09 01:53 | 42.88508 | -72.02994 | 13566 ft | 379 kts | 70° |
| 2026-05-09 01:53 | 42.89289 | -71.99590 | 12813 ft | 374 kts | 70° |
| 2026-05-09 01:54 | 42.90059 | -71.96229 | 12060 ft | 369 kts | 70° |
| 2026-05-09 01:54 | 42.90816 | -71.92906 | 11387 ft | 366 kts | 71° |
| 2026-05-09 01:54 | 42.91565 | -71.89603 | 10859 ft | 363 kts | 71° |
| 2026-05-09 01:54 | 42.92304 | -71.86326 | 10391 ft | 359 kts | 71° |
| 2026-05-09 01:55 | 42.93037 | -71.83078 | 10074 ft | 357 kts | 71° |
| 2026-05-09 01:55 | 42.93686 | -71.79879 | 10012 ft | 343 kts | 76° |
| 2026-05-09 01:55 | 42.94207 | -71.76630 | 10028 ft | 355 kts | 77° |
| 2026-05-09 01:55 | 42.94705 | -71.73315 | 10036 ft | 358 kts | 78° |
| 2026-05-09 01:56 | 42.95189 | -71.69975 | 10023 ft | 358 kts | 78° |
| 2026-05-09 01:56 | 42.95662 | -71.66682 | 10021 ft | 359 kts | 78° |
| 2026-05-09 01:56 | 42.96146 | -71.63340 | 10022 ft | 359 kts | 78° |
| 2026-05-09 01:56 | 42.96633 | -71.60007 | 10018 ft | 359 kts | 78° |
| 2026-05-09 01:57 | 42.97124 | -71.56668 | 10019 ft | 358 kts | 77° |
| 2026-05-09 01:57 | 42.97614 | -71.53332 | 10015 ft | 357 kts | 78° |
| 2026-05-09 01:57 | 42.98090 | -71.50087 | 10014 ft | 339 kts | 78° |
| 2026-05-09 01:57 | 42.98538 | -71.47020 | 10015 ft | 321 kts | 78° |
| 2026-05-09 01:58 | 42.98970 | -71.44056 | 9867 ft | 316 kts | 78° |
| 2026-05-09 01:58 | 42.99397 | -71.41135 | 9601 ft | 312 kts | 78° |
| 2026-05-09 01:58 | 42.99820 | -71.38233 | 9332 ft | 310 kts | 78° |
| 2026-05-09 01:58 | 43.00237 | -71.35353 | 9012 ft | 307 kts | 78° |
| 2026-05-09 01:59 | 43.00650 | -71.32498 | 8618 ft | 305 kts | 78° |
| 2026-05-09 01:59 | 43.01062 | -71.29667 | 8238 ft | 303 kts | 78° |
| 2026-05-09 01:59 | 43.01467 | -71.26859 | 7845 ft | 300 kts | 78° |
| 2026-05-09 01:59 | 43.01868 | -71.24072 | 7453 ft | 298 kts | 78° |
| 2026-05-09 02:00 | 43.02132 | -71.22241 | 7193 ft | 296 kts | 78° |
| 2026-05-09 02:00 | 43.02662 | -71.18565 | 6679 ft | 293 kts | 78° |
| 2026-05-09 02:00 | 43.02922 | -71.16761 | 6424 ft | 291 kts | 78° |
| 2026-05-09 02:00 | 43.03308 | -71.14059 | 6001 ft | 289 kts | 78° |
| 2026-05-09 02:01 | 43.03691 | -71.11379 | 5606 ft | 286 kts | 78° |
| 2026-05-09 02:01 | 43.04066 | -71.08725 | 5209 ft | 283 kts | 78° |
| 2026-05-09 02:01 | 43.04374 | -71.06089 | 4802 ft | 280 kts | 88° |
| 2026-05-09 02:01 | 43.04212 | -71.03451 | 4397 ft | 277 kts | 97° |
| 2026-05-09 02:02 | 43.03863 | -71.00870 | 3969 ft | 275 kts | 103° |
| 2026-05-09 02:02 | 43.03400 | -70.98344 | 3540 ft | 273 kts | 104° |
| 2026-05-09 02:02 | 43.02919 | -70.95840 | 3116 ft | 271 kts | 105° |
| 2026-05-09 02:02 | 43.02447 | -70.93405 | 2994 ft | 257 kts | 105° |
| 2026-05-09 02:03 | 43.01997 | -70.91100 | 2805 ft | 248 kts | 105° |
| 2026-05-09 02:03 | 43.01558 | -70.88851 | 2564 ft | 242 kts | 104° |
| 2026-05-09 02:03 | 43.01120 | -70.86665 | 2351 ft | 236 kts | 108° |
| 2026-05-09 02:03 | 43.00350 | -70.84746 | 2169 ft | 227 kts | 131° |
| 2026-05-09 02:04 | 42.99317 | -70.83154 | 1978 ft | 222 kts | 126° |
| 2026-05-09 02:04 | 42.98947 | -70.81185 | 1748 ft | 215 kts | 79° |
| 2026-05-09 02:04 | 42.99617 | -70.79552 | 1717 ft | 192 kts | 38° |
| 2026-05-09 02:04 | 43.00748 | -70.78705 | 1395 ft | 186 kts | 12° |
| 2026-05-09 02:05 | 43.02019 | -70.78546 | 1080 ft | 180 kts | 354° |
| 2026-05-09 02:05 | 43.03195 | -70.78848 | 836 ft | 165 kts | 341° |
| 2026-05-09 02:05 | 43.04183 | -70.79396 | 639 ft | 144 kts | 333° |
| 2026-05-09 02:05 | 43.05012 | -70.80055 | 434 ft | 133 kts | 328° |
| 2026-05-09 02:06 | 43.05794 | -70.80694 | 309 ft | 130 kts | 329° |
| 2026-05-09 02:06 | 43.06564 | -70.81321 | 122 ft | 129 kts | 330° |
| 2026-05-09 02:06 | 43.07265 | -70.81896 | 100 ft | 101 kts | 329° |
| 2026-05-09 02:07 | 43.08027 | -70.82516 | 103 ft | 44 kts | 329° |
| 2026-05-09 02:07 | 43.08231 | -70.82682 | 105 ft | 15 kts | 330° |
| 2026-05-09 02:07 | 43.08309 | -70.82668 | 103 ft | 13 kts | 58° |
| 2026-05-09 02:07 | 43.08361 | -70.82548 | 103 ft | 16 kts | 60° |
| 2026-05-09 02:08 | 43.08405 | -70.82444 | 103 ft | 10 kts | 59° |
| 2026-05-09 02:08 | 43.08403 | -70.82370 | 102 ft | 9 kts | 133° |
| 2026-05-09 02:08 | 43.08348 | -70.82324 | 103 ft | 10 kts | 150° |
| 2026-05-09 02:08 | 43.08286 | -70.82273 | 102 ft | 11 kts | 149° |
| 2026-05-09 02:09 | 43.08217 | -70.82218 | 103 ft | 12 kts | 149° |
| 2026-05-09 02:09 | 43.08150 | -70.82154 | 103 ft | 10 kts | 122° |
| 2026-05-09 02:09 | 43.08171 | -70.82060 | 102 ft | 11 kts | 59° |
| 2026-05-09 02:09 | 43.08213 | -70.81965 | 101 ft | 12 kts | 58° |
| 2026-05-09 02:10 | 43.08248 | -70.81896 | 103 ft | 7 kts | 80° |
| 2026-05-09 02:10 | 43.08248 | -70.81861 | 103 ft | 3 kts | 91° |
| 2026-05-09 02:10 | 43.08248 | -70.81846 | 103 ft | 0 kts | 90° |